Time;durP1;ratioP1;P1;durP2;ratioP2;P2;SDS_P1;SDS_P2;PMS_P1;PMS_P2;Temp;Humidity;BMP_temperature;BMP_pressure;BME280_temperature;BME280_humidity;BME280_pressure;Samples;Min_cycle;Max_cycle;Signal;HPM_P1;HPM_P2
2021/11/25 00:02:24;;;;;;;12.65;10.05;;;;;;;;;;143745;579;46010;-89
2021/11/25 00:04:51;;;;;;;13.15;10.10;;;;;;;;;;143740;617;46022;-87
2021/11/25 00:07:18;;;;;;;15.63;10.50;;;;;;;;;;143739;563;46010;-86
2021/11/25 00:09:46;;;;;;;13.15;9.27;;;;;;;;;;143740;576;47020;-86
2021/11/25 00:12:12;;;;;;;11.18;8.07;;;;;;;;;;143745;588;47010;-88
2021/11/25 00:14:39;;;;;;;15.60;9.75;;;;;;;;;;143742;686;47021;-88
2021/11/25 00:17:06;;;;;;;12.63;8.70;;;;;;;;;;143746;569;46917;-88
2021/11/25 00:19:33;;;;;;;11.85;8.77;;;;;;;;;;143738;582;47020;-88
2021/11/25 00:22:03;;;;;;;12.88;8.25;;;;;;;;;;143748;585;46010;-86
2021/11/25 00:24:33;;;;;;;11.05;7.93;;;;;;;;;;143745;623;47020;-87
2021/11/25 00:27:01;;;;;;;15.10;7.55;;;;;;;;;;143744;591;46010;-89
2021/11/25 00:29:29;;;;;;;13.80;8.60;;;;;;;;;;143739;692;47021;-88
2021/11/25 00:32:15;;;;;;;12.98;8.38;;;;;;;;;;143745;681;46010;-88
2021/11/25 00:34:43;;;;;;;13.20;10.52;;;;;;;;;;143749;589;46022;-83
2021/11/25 00:37:11;;;;;;;17.37;11.75;;;;;;;;;;143739;570;46916;-85
2021/11/25 00:39:39;;;;;;;20.80;13.23;;;;;;;;;;143744;846;46020;-86
2021/11/25 00:42:23;;;;;;;15.45;12.57;;;;;;;;;;143743;587;46010;-86
2021/11/25 00:45:38;;;;;;;18.35;14.20;;;;;;;;;;143739;567;45025;-87
2021/11/25 00:48:48;;;;;;;21.77;13.57;;;;;;;;;;143743;569;46020;-87
2021/11/25 00:51:40;;;;;;;14.98;11.57;;;;;;;;;;143735;564;46021;-88
2021/11/25 00:54:07;;;;;;;21.25;11.85;;;;;;;;;;143742;625;46010;-88
2021/11/25 00:56:54;;;;;;;11.93;7.57;;;;;;;;;;143734;585;47022;-86
2021/11/25 00:59:25;;;;;;;12.55;8.63;;;;;;;;;;143745;614;46020;-87
2021/11/25 01:01:57;;;;;;;12.30;8.38;;;;;;;;;;143741;711;46020;-88
2021/11/25 01:04:30;;;;;;;10.95;8.15;;;;;;;;;;143746;668;46010;-89
2021/11/25 01:06:56;;;;;;;9.73;7.07;;;;;;;;;;143738;633;47023;-87
2021/11/25 01:09:24;;;;;;;11.23;7.10;;;;;;;;;;143745;565;46010;-87
2021/11/25 01:12:01;;;;;;;;;;;;;;;;;;;;;
2021/11/25 01:14:35;;;;;;;17.12;8.27;;;;;;;;;;143747;569;47018;-89
2021/11/25 01:17:03;;;;;;;17.48;11.00;;;;;;;;;;143740;564;47022;-91
2021/11/25 01:19:34;;;;;;;15.25;9.75;;;;;;;;;;143739;713;46020;-88
2021/11/25 01:22:07;;;;;;;21.52;10.98;;;;;;;;;;143737;577;47021;-89
2021/11/25 01:24:38;;;;;;;15.90;11.60;;;;;;;;;;143740;613;46010;-87
2021/11/25 01:27:17;;;;;;;16.83;11.00;;;;;;;;;;143735;676;47020;-87
2021/11/25 01:29:44;;;;;;;14.25;10.68;;;;;;;;;;143741;582;46010;-87
2021/11/25 01:32:15;;;;;;;14.63;10.13;;;;;;;;;;143740;732;47020;-88
2021/11/25 01:34:45;;;;;;;13.62;9.05;;;;;;;;;;143739;579;46016;-87
2021/11/25 01:37:12;;;;;;;14.82;7.72;;;;;;;;;;143735;595;47023;-88
2021/11/25 01:39:39;;;;;;;11.07;7.30;;;;;;;;;;143743;657;46010;-88
2021/11/25 01:42:09;;;;;;;8.13;5.62;;;;;;;;;;143746;642;47020;-89
2021/11/25 01:44:40;;;;;;;12.37;6.15;;;;;;;;;;143744;737;46010;-87
2021/11/25 01:47:07;;;;;;;13.45;6.80;;;;;;;;;;143744;736;47022;-89
2021/11/25 01:49:34;;;;;;;10.60;6.78;;;;;;;;;;143745;870;46010;-89
2021/11/25 01:52:02;;;;;;;11.12;6.75;;;;;;;;;;143741;569;47021;-89
2021/11/25 01:54:29;;;;;;;9.95;6.90;;;;;;;;;;143748;751;46010;-87
2021/11/25 01:56:57;;;;;;;8.85;7.20;;;;;;;;;;143739;674;47022;-88
2021/11/25 01:59:25;;;;;;;9.00;6.80;;;;;;;;;;143743;637;46919;-89
2021/11/25 02:01:53;;;;;;;9.20;5.82;;;;;;;;;;143734;590;47020;-88
2021/11/25 02:04:23;;;;;;;11.60;6.50;;;;;;;;;;143746;757;46019;-87
2021/11/25 02:06:50;;;;;;;9.23;6.53;;;;;;;;;;143740;777;47021;-88
2021/11/25 02:09:17;;;;;;;10.20;7.72;;;;;;;;;;143745;684;46010;-87
2021/11/25 02:11:44;;;;;;;10.48;6.75;;;;;;;;;;143743;752;46020;-87
2021/11/25 02:14:12;;;;;;;14.80;7.15;;;;;;;;;;143746;598;46018;-89
2021/11/25 02:16:40;;;;;;;7.95;6.03;;;;;;;;;;143737;646;47022;-88
2021/11/25 02:19:09;;;;;;;10.23;7.25;;;;;;;;;;143745;776;46010;-87
2021/11/25 02:21:37;;;;;;;22.87;12.40;;;;;;;;;;143744;579;46021;-88
2021/11/25 02:24:05;;;;;;;14.07;9.70;;;;;;;;;;143736;774;47010;-89
2021/11/25 02:26:33;;;;;;;11.35;9.20;;;;;;;;;;143735;572;46021;-89
2021/11/25 02:29:00;;;;;;;11.15;8.35;;;;;;;;;;143744;630;46010;-89
2021/11/25 02:31:27;;;;;;;12.18;8.35;;;;;;;;;;143741;681;47020;-86
2021/11/25 02:33:53;;;;;;;16.42;8.23;;;;;;;;;;143746;592;47019;-88
2021/11/25 02:36:21;;;;;;;11.30;8.23;;;;;;;;;;143740;598;47021;-87
2021/11/25 02:38:48;;;;;;;14.05;8.15;;;;;;;;;;143743;567;46010;-87
2021/11/25 02:41:15;;;;;;;12.37;7.53;;;;;;;;;;143739;598;47020;-87
2021/11/25 02:43:50;;;;;;;10.15;7.78;;;;;;;;;;143747;565;47010;-89
2021/11/25 02:46:17;;;;;;;9.82;7.72;;;;;;;;;;143741;675;47022;-88
2021/11/25 02:48:55;;;;;;;9.70;7.18;;;;;;;;;;143743;656;46013;-87
2021/11/25 02:51:27;;;;;;;9.98;6.93;;;;;;;;;;143740;681;46021;-89
2021/11/25 02:53:55;;;;;;;9.13;7.03;;;;;;;;;;143745;638;46020;-89
2021/11/25 02:56:24;;;;;;;13.23;7.97;;;;;;;;;;143739;579;47021;-88
2021/11/25 02:58:52;;;;;;;16.25;11.32;;;;;;;;;;143742;610;47024;-86
2021/11/25 03:01:36;;;;;;;12.50;8.02;;;;;;;;;;143736;583;47020;-89
2021/11/25 03:04:05;;;;;;;9.32;7.03;;;;;;;;;;143745;692;46011;-89
2021/11/25 03:06:32;;;;;;;10.40;6.53;;;;;;;;;;143737;569;47020;-88
2021/11/25 03:09:00;;;;;;;9.55;6.65;;;;;;;;;;143742;580;46010;-87
2021/11/25 03:11:30;;;;;;;9.32;7.18;;;;;;;;;;143742;570;46022;-89
2021/11/25 03:14:08;;;;;;;11.48;7.00;;;;;;;;;;143752;694;46012;-88
2021/11/25 03:16:36;;;;;;;11.77;7.20;;;;;;;;;;143732;565;47022;-88
2021/11/25 03:19:13;;;;;;;12.73;7.55;;;;;;;;;;143745;578;46010;-87
2021/11/25 03:21:40;;;;;;;13.73;7.22;;;;;;;;;;143744;633;46021;-89
2021/11/25 03:24:07;;;;;;;9.38;6.90;;;;;;;;;;143747;769;46010;-88
2021/11/25 03:26:35;;;;;;;13.02;8.13;;;;;;;;;;143742;776;47022;-89
2021/11/25 03:29:05;;;;;;;11.10;6.25;;;;;;;;;;143744;689;46010;-90
2021/11/25 03:31:33;;;;;;;15.02;6.97;;;;;;;;;;143743;633;46012;-90
2021/11/25 03:34:04;;;;;;;11.00;6.05;;;;;;;;;;143748;567;46010;-88
2021/11/25 03:36:34;;;;;;;11.73;6.15;;;;;;;;;;143742;575;47021;-89
2021/11/25 03:39:01;;;;;;;10.77;7.50;;;;;;;;;;143745;610;46010;-88
2021/11/25 03:41:28;;;;;;;12.45;6.90;;;;;;;;;;143735;642;47020;-87
2021/11/25 03:43:57;;;;;;;12.30;9.13;;;;;;;;;;143747;623;46010;-88
2021/11/25 03:46:24;;;;;;;20.92;17.83;;;;;;;;;;143741;597;47022;-87
2021/11/25 03:48:51;;;;;;;25.95;17.95;;;;;;;;;;143734;565;46011;-88
2021/11/25 03:51:18;;;;;;;18.48;14.40;;;;;;;;;;143737;591;46021;-90
2021/11/25 03:53:46;;;;;;;36.72;27.10;;;;;;;;;;143735;633;46032;-88
2021/11/25 03:56:13;;;;;;;21.45;12.07;;;;;;;;;;143737;586;47021;-88
2021/11/25 03:58:40;;;;;;;13.88;8.68;;;;;;;;;;143735;566;46010;-89
2021/11/25 04:01:07;;;;;;;10.10;7.55;;;;;;;;;;143741;612;46012;-88
2021/11/25 04:03:34;;;;;;;14.60;8.52;;;;;;;;;;143743;581;47020;-90
2021/11/25 04:06:03;;;;;;;41.35;29.00;;;;;;;;;;143733;620;46023;-88
2021/11/25 04:08:32;;;;;;;33.70;22.05;;;;;;;;;;143738;729;46010;-90
2021/11/25 04:10:59;;;;;;;15.13;10.65;;;;;;;;;;143738;817;47020;-88
2021/11/25 04:13:26;;;;;;;14.13;9.18;;;;;;;;;;143739;571;46010;-88
2021/11/25 04:15:54;;;;;;;14.73;9.27;;;;;;;;;;143740;590;47022;-88
2021/11/25 04:18:21;;;;;;;12.80;9.35;;;;;;;;;;143743;761;46010;-88
2021/11/25 04:20:49;;;;;;;16.75;9.77;;;;;;;;;;143742;751;47020;-88
2021/11/25 04:23:16;;;;;;;14.77;9.80;;;;;;;;;;143745;767;46010;-88
2021/11/25 04:25:43;;;;;;;39.00;24.67;;;;;;;;;;143738;664;47020;-89
2021/11/25 04:28:14;;;;;;;14.13;9.38;;;;;;;;;;143737;642;46010;-88
2021/11/25 04:30:55;;;;;;;25.12;18.85;;;;;;;;;;143735;614;46020;-89
2021/11/25 04:36:08;;;;;;;13.90;9.27;;;;;;;;;;143738;769;46020;-89
2021/11/25 04:38:35;;;;;;;16.60;8.82;;;;;;;;;;143742;633;47010;-88
2021/11/25 04:41:02;;;;;;;12.00;7.32;;;;;;;;;;143744;566;47020;-88
2021/11/25 04:43:30;;;;;;;10.57;8.32;;;;;;;;;;143745;671;46010;-87
2021/11/25 04:45:58;;;;;;;12.23;8.00;;;;;;;;;;143744;617;47020;-88
2021/11/25 04:48:27;;;;;;;8.63;5.90;;;;;;;;;;143743;632;46011;-88
2021/11/25 04:50:55;;;;;;;8.57;5.90;;;;;;;;;;143742;577;47021;-87
2021/11/25 04:53:23;;;;;;;9.55;6.68;;;;;;;;;;143745;604;46010;-89
2021/11/25 04:55:51;;;;;;;12.43;5.50;;;;;;;;;;143736;594;47021;-88
2021/11/25 04:58:21;;;;;;;12.00;6.47;;;;;;;;;;143738;726;46010;-88
2021/11/25 05:00:48;;;;;;;10.02;6.12;;;;;;;;;;143744;571;46020;-89
2021/11/25 05:03:15;;;;;;;11.55;5.87;;;;;;;;;;143742;582;47011;-88
2021/11/25 05:05:45;;;;;;;13.70;6.68;;;;;;;;;;143740;592;47020;-88
2021/11/25 05:08:11;;;;;;;13.95;6.68;;;;;;;;;;143742;817;47030;-88
2021/11/25 05:10:39;;;;;;;15.52;7.45;;;;;;;;;;143733;581;47020;-91
2021/11/25 05:13:06;;;;;;;10.25;6.78;;;;;;;;;;143744;644;47010;-89
2021/11/25 05:15:33;;;;;;;17.77;9.20;;;;;;;;;;143734;572;47022;-88
2021/11/25 05:18:01;;;;;;;14.77;10.38;;;;;;;;;;143743;606;46010;-89
2021/11/25 05:20:28;;;;;;;14.10;9.20;;;;;;;;;;143732;585;47020;-88
2021/11/25 05:22:54;;;;;;;12.13;8.70;;;;;;;;;;143742;585;46010;-89
2021/11/25 05:25:21;;;;;;;14.02;8.35;;;;;;;;;;143734;618;47020;-87
2021/11/25 05:27:48;;;;;;;18.40;8.00;;;;;;;;;;143742;607;46020;-89
2021/11/25 05:30:16;;;;;;;12.10;8.52;;;;;;;;;;143736;825;47020;-87
2021/11/25 05:32:45;;;;;;;16.08;8.88;;;;;;;;;;143741;563;46010;-88
2021/11/25 05:35:14;;;;;;;12.80;7.35;;;;;;;;;;143738;649;47023;-87
2021/11/25 05:37:42;;;;;;;20.77;8.52;;;;;;;;;;143742;570;46020;-88
2021/11/25 05:40:11;;;;;;;14.00;8.82;;;;;;;;;;143739;569;47020;-89
2021/11/25 05:42:39;;;;;;;14.52;10.38;;;;;;;;;;143735;569;47010;-89
2021/11/25 05:45:10;;;;;;;19.23;12.37;;;;;;;;;;143731;607;47022;-86
2021/11/25 05:47:41;;;;;;;31.65;15.32;;;;;;;;;;143734;801;46020;-87
2021/11/25 05:50:30;;;;;;;19.87;13.27;;;;;;;;;;143737;601;47021;-87
2021/11/25 05:52:58;;;;;;;27.83;13.93;;;;;;;;;;143736;577;46010;-86
2021/11/25 05:55:29;;;;;;;18.27;12.32;;;;;;;;;;143732;815;47021;-85
2021/11/25 05:58:00;;;;;;;22.65;12.37;;;;;;;;;;143735;637;46917;-88
2021/11/25 06:00:27;;;;;;;28.27;12.85;;;;;;;;;;143732;739;47020;-88
2021/11/25 06:02:54;;;;;;;19.70;13.18;;;;;;;;;;143733;620;46011;-86
2021/11/25 06:05:23;;;;;;;24.23;12.90;;;;;;;;;;143731;626;47020;-88
2021/11/25 06:07:51;;;;;;;23.42;13.65;;;;;;;;;;143735;795;46020;-87
2021/11/25 06:10:20;;;;;;;16.27;12.07;;;;;;;;;;143733;590;47020;-87
2021/11/25 06:12:51;;;;;;;21.67;12.60;;;;;;;;;;143737;566;46010;-87
2021/11/25 06:15:17;;;;;;;19.50;12.75;;;;;;;;;;143735;590;47020;-87
2021/11/25 06:17:44;;;;;;;20.77;14.23;;;;;;;;;;143736;732;46020;-88
2021/11/25 06:20:15;;;;;;;29.15;13.62;;;;;;;;;;143738;627;47020;-86
2021/11/25 06:22:46;;;;;;;25.88;14.48;;;;;;;;;;143735;604;46010;-86
2021/11/25 06:25:26;;;;;;;22.90;13.07;;;;;;;;;;143733;586;47022;-87
2021/11/25 06:27:54;;;;;;;21.12;10.95;;;;;;;;;;143735;579;47010;-86
2021/11/25 06:30:22;;;;;;;22.17;12.10;;;;;;;;;;143739;603;46020;-85
2021/11/25 06:32:49;;;;;;;26.62;12.50;;;;;;;;;;143735;596;46010;-86
2021/11/25 06:35:18;;;;;;;19.20;11.60;;;;;;;;;;143729;718;47023;-85
2021/11/25 06:37:48;;;;;;;19.05;10.23;;;;;;;;;;143737;595;46010;-85
2021/11/25 06:40:17;;;;;;;24.65;10.13;;;;;;;;;;143737;678;47020;-86
2021/11/25 06:42:45;;;;;;;31.05;11.85;;;;;;;;;;143737;564;46010;-87
2021/11/25 06:45:14;;;;;;;18.80;7.80;;;;;;;;;;143742;584;45022;-90
2021/11/25 06:47:41;;;;;;;23.62;11.48;;;;;;;;;;143744;564;46020;-85
2021/11/25 06:50:10;;;;;;;20.08;9.73;;;;;;;;;;143735;636;47020;-87
2021/11/25 06:52:38;;;;;;;17.52;10.65;;;;;;;;;;143745;572;46018;-87
2021/11/25 06:55:09;;;;;;;17.77;11.07;;;;;;;;;;143737;617;46022;-86
2021/11/25 06:57:37;;;;;;;17.80;10.68;;;;;;;;;;143736;564;46010;-86
2021/11/25 07:00:07;;;;;;;14.05;8.73;;;;;;;;;;143733;569;46020;-86
2021/11/25 07:02:35;;;;;;;16.55;10.85;;;;;;;;;;143740;734;46037;-87
2021/11/25 07:05:04;;;;;;;18.90;9.45;;;;;;;;;;143734;583;47020;-85
2021/11/25 07:07:32;;;;;;;13.80;8.52;;;;;;;;;;143742;585;46020;-83
2021/11/25 07:09:58;;;;;;;19.15;9.10;;;;;;;;;;143738;690;47013;-83
2021/11/25 07:12:25;;;;;;;14.15;7.62;;;;;;;;;;143740;623;47010;-84
2021/11/25 07:14:52;;;;;;;16.20;8.90;;;;;;;;;;143742;731;47020;-83
2021/11/25 07:17:19;;;;;;;12.57;9.15;;;;;;;;;;143742;566;46917;-87
2021/11/25 07:19:46;;;;;;;15.40;9.23;;;;;;;;;;143739;591;47021;-87
2021/11/25 07:22:13;;;;;;;22.98;9.57;;;;;;;;;;143747;692;46010;-87
2021/11/25 07:24:42;;;;;;;15.75;8.82;;;;;;;;;;143733;585;47022;-87
2021/11/25 07:27:08;;;;;;;19.12;9.07;;;;;;;;;;143744;811;46010;-86
2021/11/25 07:29:36;;;;;;;24.00;10.55;;;;;;;;;;143742;626;47020;-86
2021/11/25 07:32:03;;;;;;;20.30;11.43;;;;;;;;;;143740;564;46018;-87
2021/11/25 07:34:33;;;;;;;15.73;10.60;;;;;;;;;;143738;774;47023;-85
2021/11/25 07:37:00;;;;;;;30.10;13.62;;;;;;;;;;143737;772;46020;-86
2021/11/25 07:39:59;;;;;;;;;;;;;;;;;;;;;
2021/11/25 07:42:39;;;;;;;;;;;;;;;;;;;;;
2021/11/25 07:45:16;;;;;;;24.90;14.57;;;;;;;;;;143736;590;47024;-86
2021/11/25 07:47:50;;;;;;;26.95;15.52;;;;;;;;;;143735;615;46916;-86
2021/11/25 07:50:25;;;;;;;95.00;71.07;;;;;;;;;;143732;600;47021;-84
2021/11/25 07:53:11;;;;;;;51.53;39.67;;;;;;;;;;143739;619;46010;-87
2021/11/25 07:55:44;;;;;;;85.12;58.70;;;;;;;;;;143739;680;47022;-85
2021/11/25 07:58:11;;;;;;;32.00;23.93;;;;;;;;;;143736;565;46018;-87
2021/11/25 08:00:38;;;;;;;33.30;21.12;;;;;;;;;;143740;718;46020;-88
2021/11/25 08:03:06;;;;;;;31.87;23.83;;;;;;;;;;143741;605;46011;-85
2021/11/25 08:05:34;;;;;;;28.40;18.80;;;;;;;;;;143735;621;47023;-86
2021/11/25 08:08:01;;;;;;;37.15;24.33;;;;;;;;;;143738;631;46010;-86
2021/11/25 08:10:29;;;;;;;18.62;10.68;;;;;;;;;;143735;596;47021;-86
2021/11/25 08:12:58;;;;;;;18.35;10.88;;;;;;;;;;143741;574;46020;-86
2021/11/25 08:15:26;;;;;;;23.70;13.50;;;;;;;;;;143730;613;47022;-87
2021/11/25 08:17:54;;;;;;;27.58;14.50;;;;;;;;;;143736;639;46011;-88
2021/11/25 08:20:22;;;;;;;16.20;12.23;;;;;;;;;;143737;600;47020;-87
2021/11/25 08:22:49;;;;;;;22.40;13.55;;;;;;;;;;143739;631;46020;-87
2021/11/25 08:25:20;;;;;;;25.00;13.20;;;;;;;;;;143736;575;47021;-85
2021/11/25 08:27:47;;;;;;;34.30;13.90;;;;;;;;;;143736;837;46020;-87
2021/11/25 08:30:14;;;;;;;39.88;16.50;;;;;;;;;;143740;585;46020;-88
2021/11/25 08:32:42;;;;;;;34.97;17.58;;;;;;;;;;143739;632;46010;-86
2021/11/25 08:35:13;;;;;;;34.15;15.80;;;;;;;;;;143737;780;47020;-86
2021/11/25 08:37:42;;;;;;;19.35;11.40;;;;;;;;;;143735;853;46010;-88
2021/11/25 08:40:15;;;;;;;21.17;11.88;;;;;;;;;;143733;583;47021;-87
2021/11/25 08:42:46;;;;;;;31.48;12.48;;;;;;;;;;143736;601;47010;-87
2021/11/25 08:45:15;;;;;;;28.65;15.63;;;;;;;;;;143737;628;47022;-87
2021/11/25 08:47:42;;;;;;;27.87;14.18;;;;;;;;;;143738;616;46021;-87
2021/11/25 08:50:11;;;;;;;21.27;11.12;;;;;;;;;;143740;570;46020;-87
2021/11/25 08:52:41;;;;;;;25.80;12.35;;;;;;;;;;143739;773;46010;-86
2021/11/25 08:55:09;;;;;;;18.48;11.90;;;;;;;;;;143739;634;46035;-87
2021/11/25 08:57:38;;;;;;;25.20;12.88;;;;;;;;;;143737;644;46010;-87
2021/11/25 09:00:09;;;;;;;16.80;11.85;;;;;;;;;;143737;564;47020;-87
2021/11/25 09:02:38;;;;;;;20.12;13.65;;;;;;;;;;143738;625;46011;-86
2021/11/25 09:05:10;;;;;;;18.70;13.80;;;;;;;;;;143730;569;47023;-87
2021/11/25 09:07:38;;;;;;;18.90;12.48;;;;;;;;;;143735;626;46012;-87
2021/11/25 09:10:06;;;;;;;18.27;12.82;;;;;;;;;;143739;570;47020;-86
2021/11/25 09:12:35;;;;;;;20.12;11.82;;;;;;;;;;143742;564;46010;-87
2021/11/25 09:15:05;;;;;;;16.37;10.85;;;;;;;;;;143742;582;46022;-87
2021/11/25 09:17:32;;;;;;;14.68;8.82;;;;;;;;;;143737;586;46918;-87
2021/11/25 09:20:00;;;;;;;17.35;11.57;;;;;;;;;;143743;577;47020;-86
2021/11/25 09:22:30;;;;;;;13.07;5.93;;;;;;;;;;143740;588;46010;-87
2021/11/25 09:25:00;;;;;;;8.80;6.45;;;;;;;;;;143743;714;46022;-86
2021/11/25 09:27:27;;;;;;;16.00;7.18;;;;;;;;;;143743;564;46010;-88
2021/11/25 09:29:56;;;;;;;13.98;7.40;;;;;;;;;;143733;569;47020;-86
2021/11/25 09:32:27;;;;;;;16.45;8.10;;;;;;;;;;143747;694;46010;-87
2021/11/25 09:34:57;;;;;;;19.10;13.23;;;;;;;;;;143741;566;47023;-86
2021/11/25 09:37:29;;;;;;;19.77;13.48;;;;;;;;;;143738;596;46010;-86
2021/11/25 09:39:58;;;;;;;14.35;8.23;;;;;;;;;;143740;772;47021;-87
2021/11/25 09:42:25;;;;;;;14.07;8.32;;;;;;;;;;143747;611;46010;-86
2021/11/25 09:44:56;;;;;;;14.13;7.68;;;;;;;;;;143742;565;47022;-87
2021/11/25 09:47:24;;;;;;;9.32;7.18;;;;;;;;;;143743;580;46010;-86
2021/11/25 09:49:51;;;;;;;13.10;7.70;;;;;;;;;;143741;574;47020;-86
2021/11/25 09:52:18;;;;;;;16.40;7.75;;;;;;;;;;143746;565;46010;-87
2021/11/25 09:54:46;;;;;;;17.12;9.52;;;;;;;;;;143731;566;47021;-87
2021/11/25 09:57:13;;;;;;;14.68;7.65;;;;;;;;;;143743;600;46010;-87
2021/11/25 09:59:41;;;;;;;14.87;10.95;;;;;;;;;;143744;622;47020;-86
2021/11/25 10:02:09;;;;;;;15.18;8.88;;;;;;;;;;143738;590;46011;-87
2021/11/25 10:04:36;;;;;;;18.50;8.40;;;;;;;;;;143745;571;47023;-87
2021/11/25 10:07:03;;;;;;;14.60;8.70;;;;;;;;;;143743;591;46010;-86
2021/11/25 10:09:38;;;;;;;14.48;7.78;;;;;;;;;;143745;564;47020;-87
2021/11/25 10:12:37;;;;;;;14.57;7.57;;;;;;;;;;143747;589;46020;-85
2021/11/25 10:15:38;;;;;;;9.65;4.80;;;;;;;;;;143742;588;47022;-86
2021/11/25 10:18:13;;;;;;;18.20;6.43;;;;;;;;;;143744;583;46011;-87
2021/11/25 10:20:50;;;;;;;21.00;8.32;;;;;;;;;;143734;603;46020;-87
2021/11/25 10:23:25;;;;;;;13.52;5.60;;;;;;;;;;143746;586;47019;-86
2021/11/25 10:26:07;;;;;;;16.42;7.32;;;;;;;;;;143743;636;47023;-86
2021/11/25 10:28:51;;;;;;;12.02;6.60;;;;;;;;;;143744;617;46010;-86
2021/11/25 10:31:24;;;;;;;12.40;6.10;;;;;;;;;;143746;599;46020;-88
2021/11/25 10:34:13;;;;;;;12.20;5.85;;;;;;;;;;143748;577;46010;-86
2021/11/25 10:42:41;;;;;;;15.00;5.45;;;;;;;;;;143745;579;46020;-88
2021/11/25 10:45:16;;;;;;;13.23;5.32;;;;;;;;;;143745;578;46010;-87
2021/11/25 10:47:54;;;;;;;14.63;5.40;;;;;;;;;;143733;596;46013;-86
2021/11/25 10:50:32;;;;;;;12.27;7.70;;;;;;;;;;143741;610;46919;-87
2021/11/25 10:53:07;;;;;;;20.70;7.03;;;;;;;;;;143744;563;47020;-86
2021/11/25 10:55:34;;;;;;;21.67;5.80;;;;;;;;;;143747;616;46018;-86
2021/11/25 10:58:02;;;;;;;14.82;6.93;;;;;;;;;;143744;604;47022;-87
2021/11/25 11:00:39;;;;;;;16.65;7.47;;;;;;;;;;143746;577;46010;-87
2021/11/25 11:03:10;;;;;;;10.13;6.30;;;;;;;;;;143747;611;46021;-85
2021/11/25 11:05:56;;;;;;;15.75;7.70;;;;;;;;;;143745;589;46010;-87
2021/11/25 11:08:25;;;;;;;22.15;6.97;;;;;;;;;;143744;641;47022;-85
2021/11/25 11:11:03;;;;;;;18.25;8.65;;;;;;;;;;143743;622;46920;-87
2021/11/25 11:13:37;;;;;;;14.00;7.12;;;;;;;;;;143739;579;47020;-87
2021/11/25 11:16:28;;;;;;;30.73;10.07;;;;;;;;;;143743;626;46011;-85
2021/11/25 11:18:56;;;;;;;14.30;5.80;;;;;;;;;;143738;583;47020;-87
2021/11/25 11:21:51;;;;;;;11.73;6.70;;;;;;;;;;143744;565;46010;-87
2021/11/25 11:24:26;;;;;;;19.33;12.20;;;;;;;;;;143745;569;47021;-86
2021/11/25 11:27:02;;;;;;;11.55;7.05;;;;;;;;;;143739;571;46018;-88
2021/11/25 11:29:31;;;;;;;17.45;6.53;;;;;;;;;;143742;597;47024;-86
2021/11/25 11:32:04;;;;;;;8.80;4.15;;;;;;;;;;143743;608;46011;-87
2021/11/25 11:34:33;;;;;;;7.90;4.15;;;;;;;;;;143745;593;47020;-86
2021/11/25 11:37:01;;;;;;;9.57;4.20;;;;;;;;;;143750;564;46010;-87
2021/11/25 11:39:30;;;;;;;12.50;5.57;;;;;;;;;;143732;665;47022;-91
2021/11/25 11:42:03;;;;;;;8.55;3.92;;;;;;;;;;143750;687;45919;-95
2021/11/25 11:44:29;;;;;;;13.18;9.13;;;;;;;;;;143745;587;47020;-94
2021/11/25 11:47:13;;;;;;;17.92;11.48;;;;;;;;;;143748;622;46043;-92
2021/11/25 11:49:47;;;;;;;12.57;9.15;;;;;;;;;;143739;608;47024;-91
2021/11/25 11:52:17;;;;;;;20.05;7.75;;;;;;;;;;143746;588;46010;-93
2021/11/25 11:54:52;;;;;;;19.05;9.70;;;;;;;;;;143747;570;47021;-93
2021/11/25 11:57:38;;;;;;;16.85;8.10;;;;;;;;;;143753;569;45020;-96
2021/11/25 12:00:45;;;;;;;13.95;8.05;;;;;;;;;;143743;564;47020;-92
2021/11/25 12:03:36;;;;;;;21.55;9.35;;;;;;;;;;143746;564;45919;-93
2021/11/25 12:06:11;;;;;;;12.23;8.32;;;;;;;;;;143738;708;47020;-85
2021/11/25 12:09:32;;;;;;;16.08;8.05;;;;;;;;;;143749;588;46011;-86
2021/11/25 12:12:14;;;;;;;26.50;16.60;;;;;;;;;;143745;627;47024;-86
2021/11/25 12:15:17;;;;;;;24.35;15.20;;;;;;;;;;143737;604;46010;-86
2021/11/25 12:17:56;;;;;;;18.80;9.23;;;;;;;;;;143742;621;46021;-86
2021/11/25 12:20:59;;;;;;;14.73;7.90;;;;;;;;;;143749;580;46020;-86
2021/11/25 12:23:46;;;;;;;19.50;8.02;;;;;;;;;;143746;678;46050;-89
2021/11/25 12:26:14;;;;;;;16.73;7.62;;;;;;;;;;143744;624;47010;-86
2021/11/25 12:28:50;;;;;;;19.05;8.05;;;;;;;;;;143747;563;47020;-87
2021/11/25 12:35:00;;;;;;;22.95;11.88;;;;;;;;;;143735;578;46020;-84
2021/11/25 12:38:06;;;;;;;24.70;15.23;;;;;;;;;;143738;586;46010;-84
2021/11/25 12:40:46;;;;;;;17.12;9.15;;;;;;;;;;143738;585;47021;-86
2021/11/25 12:43:21;;;;;;;22.85;12.13;;;;;;;;;;143750;597;46010;-87
2021/11/25 12:45:57;;;;;;;18.02;12.43;;;;;;;;;;143738;564;47022;-86
2021/11/25 12:48:45;;;;;;;23.98;14.82;;;;;;;;;;143740;578;46010;-85
2021/11/25 12:52:10;;;;;;;17.52;10.65;;;;;;;;;;143744;611;45020;-86
2021/11/25 12:54:43;;;;;;;14.93;8.35;;;;;;;;;;143748;658;45021;-86
2021/11/25 12:57:52;;;;;;;23.73;14.85;;;;;;;;;;143748;603;46020;-87
2021/11/25 13:00:29;;;;;;;27.55;15.43;;;;;;;;;;143743;625;46010;-86
2021/11/25 13:03:08;;;;;;;21.98;14.38;;;;;;;;;;143736;608;47020;-85
2021/11/25 13:05:42;;;;;;;27.50;15.57;;;;;;;;;;143743;642;46010;-85
2021/11/25 13:08:12;;;;;;;16.92;10.20;;;;;;;;;;143739;577;47022;-86
2021/11/25 13:10:42;;;;;;;16.15;9.40;;;;;;;;;;143738;626;46010;-84
2021/11/25 13:13:15;;;;;;;28.35;9.80;;;;;;;;;;143742;657;47020;-85
2021/11/25 13:16:18;;;;;;;20.80;11.02;;;;;;;;;;143747;565;46019;-86
2021/11/25 13:18:58;;;;;;;19.20;9.75;;;;;;;;;;143735;579;47025;-86
2021/11/25 13:21:31;;;;;;;17.50;10.93;;;;;;;;;;143743;572;46917;-86
2021/11/25 13:24:05;;;;;;;11.80;8.50;;;;;;;;;;143738;566;47021;-85
2021/11/25 13:27:10;;;;;;;28.80;19.05;;;;;;;;;;143747;597;46019;-84
2021/11/25 13:29:42;;;;;;;;;;;;;;;;;;143736;980;47022;-87
2021/11/25 13:32:58;;;;;;;15.25;8.55;;;;;;;;;;143748;691;46012;-86
2021/11/25 13:35:25;;;;;;;21.40;12.02;;;;;;;;;;143742;569;47020;-85
2021/11/25 13:37:53;;;;;;;27.25;18.30;;;;;;;;;;143740;587;46019;-86
2021/11/25 13:40:37;;;;;;;18.17;12.77;;;;;;;;;;143734;612;47020;-82
2021/11/25 13:43:09;;;;;;;14.40;9.35;;;;;;;;;;143741;608;45916;-83
2021/11/25 13:45:36;;;;;;;25.00;16.52;;;;;;;;;;143744;633;46021;-82
2021/11/25 13:48:04;;;;;;;18.23;12.73;;;;;;;;;;143744;590;46012;-84
2021/11/25 13:50:33;;;;;;;40.95;29.12;;;;;;;;;;143739;585;47020;-86
2021/11/25 13:53:01;;;;;;;86.95;62.90;;;;;;;;;;143739;581;46013;-86
2021/11/25 13:55:38;;;;;;;68.40;54.45;;;;;;;;;;143738;586;46018;-89
2021/11/25 13:58:05;;;;;;;29.37;20.77;;;;;;;;;;143737;628;46018;-86
2021/11/25 14:00:38;;;;;;;23.85;18.05;;;;;;;;;;143739;581;47020;-86
2021/11/25 14:03:06;;;;;;;18.27;12.60;;;;;;;;;;143740;633;47020;-87
2021/11/25 14:05:54;;;;;;;17.33;11.40;;;;;;;;;;143737;596;46020;-87
2021/11/25 14:08:21;;;;;;;21.73;11.38;;;;;;;;;;143739;570;47018;-85
2021/11/25 14:10:48;;;;;;;15.65;12.15;;;;;;;;;;143739;591;46016;-86
2021/11/25 14:13:15;;;;;;;13.77;10.45;;;;;;;;;;143738;630;46012;-85
2021/11/25 14:15:44;;;;;;;15.32;12.25;;;;;;;;;;143739;618;47020;-86
2021/11/25 14:18:12;;;;;;;20.58;10.82;;;;;;;;;;143744;575;46012;-85
2021/11/25 14:20:43;;;;;;;22.65;15.93;;;;;;;;;;143734;592;46022;-86
2021/11/25 14:23:19;;;;;;;18.17;13.20;;;;;;;;;;143740;651;46012;-87
2021/11/25 14:25:47;;;;;;;25.42;14.43;;;;;;;;;;143742;602;47020;-88
2021/11/25 14:31:29;;;;;;;31.00;15.35;;;;;;;;;;143741;611;47021;-86
2021/11/25 14:33:59;;;;;;;23.17;15.07;;;;;;;;;;143738;603;46012;-86
2021/11/25 14:36:30;;;;;;;25.42;16.33;;;;;;;;;;143742;603;46020;-86
2021/11/25 14:38:59;;;;;;;21.55;15.40;;;;;;;;;;143740;564;46021;-86
2021/11/25 14:41:30;;;;;;;18.62;13.93;;;;;;;;;;143739;632;47020;-88
2021/11/25 14:44:16;;;;;;;16.67;12.70;;;;;;;;;;143738;694;46012;-86
2021/11/25 14:46:43;;;;;;;20.90;13.32;;;;;;;;;;143735;589;47021;-86
2021/11/25 14:49:26;;;;;;;20.70;11.52;;;;;;;;;;143740;564;46012;-87
2021/11/25 14:55:18;;;;;;;28.83;18.15;;;;;;;;;;143740;565;46020;-86
2021/11/25 14:57:56;;;;;;;29.42;21.50;;;;;;;;;;143740;579;47020;-85
2021/11/25 15:00:25;;;;;;;33.30;23.75;;;;;;;;;;143740;600;46013;-84
2021/11/25 15:03:05;;;;;;;33.30;21.55;;;;;;;;;;143741;564;47023;-88
2021/11/25 15:05:34;;;;;;;32.53;21.75;;;;;;;;;;143737;598;46020;-87
2021/11/25 15:08:10;;;;;;;47.67;35.95;;;;;;;;;;143743;576;46021;-86
2021/11/25 15:10:45;;;;;;;37.80;27.73;;;;;;;;;;143743;622;46012;-86
2021/11/25 15:13:14;;;;;;;26.83;21.83;;;;;;;;;;143734;605;47024;-86
2021/11/25 15:15:49;;;;;;;29.10;23.20;;;;;;;;;;143741;580;46014;-84
2021/11/25 15:18:38;;;;;;;28.73;22.58;;;;;;;;;;143741;621;46048;-86